Time;durP1;ratioP1;P1;durP2;ratioP2;P2;SDS_P1;SDS_P2;PMS_P1;PMS_P2;Temp;Humidity;BMP_temperature;BMP_pressure;BME280_temperature;BME280_humidity;BME280_pressure;Samples;Min_cycle;Max_cycle;Signal;HPM_P1;HPM_P2
2021/11/09 00:02:23;;;;;;;6.17;1.97;;;;;;;7.55;100.00;101688.09;5071336;28;20626;-74
2021/11/09 00:04:53;;;;;;;2.97;0.70;;;;;;;7.56;100.00;101690.53;5072489;28;20167;-74
2021/11/09 00:09:56;;;;;;;3.50;1.07;;;;;;;7.57;100.00;101694.06;5071966;28;20221;-74
2021/11/09 00:12:30;;;;;;;0.97;0.97;;;;;;;7.56;100.00;101692.44;5072666;28;20502;-74
2021/11/09 00:14:57;;;;;;;4.30;2.13;;;;;;;7.55;100.00;101682.66;5072199;28;20248;-74
2021/11/09 00:17:23;;;;;;;5.03;2.13;;;;;;;7.54;100.00;101690.00;5072394;28;20451;-74
2021/11/09 00:19:49;;;;;;;1.53;1.30;;;;;;;7.55;100.00;101688.91;5071678;28;20237;-75
2021/11/09 00:22:15;;;;;;;0.50;0.50;;;;;;;7.55;100.00;101697.06;5072227;28;20178;-74
2021/11/09 00:24:40;;;;;;;1.30;1.00;;;;;;;7.54;100.00;101684.53;5072079;28;20181;-75
2021/11/09 00:27:05;;;;;;;6.50;2.50;;;;;;;7.53;100.00;101695.69;5070846;28;20193;-75
2021/11/09 00:29:31;;;;;;;4.47;1.70;;;;;;;7.51;100.00;101689.66;5072040;28;20183;-75
2021/11/09 00:31:56;;;;;;;0.40;0.40;;;;;;;7.50;100.00;101694.28;5072146;28;20197;-74
2021/11/09 00:34:21;;;;;;;2.93;1.30;;;;;;;7.51;100.00;101692.38;5072230;28;20626;-75
2021/11/09 00:36:47;;;;;;;2.03;1.80;;;;;;;7.48;100.00;101688.28;5072109;28;20631;-75
2021/11/09 00:39:13;;;;;;;7.30;1.60;;;;;;;7.50;100.00;101691.56;5071794;28;20202;-75
2021/11/09 00:41:39;;;;;;;0.57;0.57;;;;;;;7.49;100.00;101698.09;5071899;28;20186;-75
2021/11/09 00:44:04;;;;;;;3.60;1.00;;;;;;;7.49;100.00;101691.81;5071568;28;20173;-75
2021/11/09 00:46:30;;;;;;;1.33;0.90;;;;;;;7.50;100.00;101686.13;5071737;28;20175;-75
2021/11/09 00:48:55;;;;;;;3.87;1.50;;;;;;;7.51;100.00;101704.06;5071833;28;20468;-75
2021/11/09 00:51:21;;;;;;;2.60;1.00;;;;;;;7.51;100.00;101698.63;5071587;28;20490;-75
2021/11/09 00:53:47;;;;;;;1.67;1.00;;;;;;;7.52;100.00;101705.72;5071357;28;20261;-74
2021/11/09 00:56:12;;;;;;;1.67;1.57;;;;;;;7.54;100.00;101705.47;5071702;28;20661;-75
2021/11/09 00:58:38;;;;;;;3.63;1.20;;;;;;;7.54;100.00;101706.31;5071525;28;20664;-75
2021/11/09 01:01:04;;;;;;;4.73;1.70;;;;;;;7.57;100.00;101710.41;5071502;28;20645;-75
2021/11/09 01:03:30;;;;;;;2.80;1.20;;;;;;;7.59;100.00;101708.22;5071303;28;20206;-75
2021/11/09 01:05:56;;;;;;;0.87;0.70;;;;;;;7.61;100.00;101700.63;5071164;28;20181;-75
2021/11/09 01:08:22;;;;;;;3.10;2.07;;;;;;;7.60;100.00;101705.25;5071494;28;20294;-74
2021/11/09 01:10:51;;;;;;;0.93;0.37;;;;;;;7.58;100.00;101704.69;5070850;28;20181;-75
2021/11/09 01:13:17;;;;;;;9.03;1.53;;;;;;;7.57;100.00;101699.50;5069917;28;20179;-75
2021/11/09 01:15:49;;;;;;;2.47;1.10;;;;;;;7.57;100.00;101694.91;5070932;28;20178;-75
2021/11/09 01:18:34;;;;;;;2.77;2.00;;;;;;;7.60;100.00;101699.00;5071061;28;20665;-75
2021/11/09 01:21:00;;;;;;;7.53;2.17;;;;;;;7.63;100.00;101695.75;5071327;28;20261;-75
2021/11/09 01:23:26;;;;;;;4.63;1.23;;;;;;;7.67;100.00;101705.88;5071092;28;20583;-75
2021/11/09 01:25:51;;;;;;;3.73;1.80;;;;;;;7.71;100.00;101704.25;5070676;28;20174;-75
2021/11/09 01:28:17;;;;;;;2.97;1.80;;;;;;;7.77;100.00;101694.22;5070955;28;20171;-75
2021/11/09 01:30:44;;;;;;;3.40;2.30;;;;;;;7.76;100.00;101695.28;5070858;28;20166;-75
2021/11/09 01:33:10;;;;;;;2.03;1.63;;;;;;;7.74;100.00;101706.44;5070057;28;20171;-75
2021/11/09 01:35:36;;;;;;;1.43;1.33;;;;;;;7.73;100.00;101702.09;5070691;28;20171;-75
2021/11/09 01:38:02;;;;;;;3.87;1.47;;;;;;;7.75;100.00;101701.81;5070895;28;20262;-75
2021/11/09 01:40:29;;;;;;;2.70;1.43;;;;;;;7.75;100.00;101701.81;5070565;28;20676;-75
2021/11/09 01:42:56;;;;;;;3.07;1.40;;;;;;;7.74;100.00;101708.34;5070779;28;20163;-75
2021/11/09 01:45:23;;;;;;;2.33;1.40;;;;;;;7.74;100.00;101716.50;5070607;28;20216;-75
2021/11/09 01:47:50;;;;;;;4.37;1.73;;;;;;;7.75;100.00;101718.16;5070692;28;20172;-75
2021/11/09 01:50:19;;;;;;;2.80;1.30;;;;;;;7.72;100.00;101702.34;5070855;28;20630;-75
2021/11/09 01:52:45;;;;;;;2.53;1.57;;;;;;;7.66;100.00;101706.09;5070596;28;20277;-75
2021/11/09 01:55:15;;;;;;;2.90;1.40;;;;;;;7.58;100.00;101704.69;5070278;28;20308;-75
2021/11/09 01:57:41;;;;;;;1.17;0.90;;;;;;;7.53;100.00;101698.41;5070525;28;20179;-75
2021/11/09 02:00:12;;;;;;;2.63;1.60;;;;;;;7.49;100.00;101700.81;5070484;28;20209;-75
2021/11/09 02:02:38;;;;;;;1.87;1.50;;;;;;;7.45;100.00;101697.78;5070679;28;20173;-75
2021/11/09 02:05:05;;;;;;;2.93;1.73;;;;;;;7.41;100.00;101695.84;5070681;28;20175;-75
2021/11/09 02:07:31;;;;;;;2.93;1.27;;;;;;;7.40;100.00;101702.38;5070195;28;20213;-75
2021/11/09 02:09:56;;;;;;;3.37;1.57;;;;;;;7.40;100.00;101705.09;5069969;28;20694;-75
2021/11/09 02:12:22;;;;;;;2.53;1.40;;;;;;;7.41;100.00;101702.13;5070416;28;20564;-75
2021/11/09 02:14:47;;;;;;;4.00;1.83;;;;;;;7.46;100.00;101709.47;5070164;28;20175;-75
2021/11/09 02:17:14;;;;;;;7.20;3.03;;;;;;;7.51;100.00;101708.69;5070386;28;20644;-75
2021/11/09 02:19:41;;;;;;;4.43;2.00;;;;;;;7.56;100.00;101706.84;5070066;28;20491;-72
2021/11/09 02:22:07;;;;;;;5.13;1.90;;;;;;;7.60;100.00;101705.25;5070300;28;20170;-72
2021/11/09 02:24:33;;;;;;;3.27;2.97;;;;;;;7.61;100.00;101711.50;5069975;28;20652;-75
2021/11/09 02:26:58;;;;;;;3.77;2.50;;;;;;;7.64;100.00;101710.97;5070204;28;20178;-75
2021/11/09 02:29:24;;;;;;;2.63;1.83;;;;;;;7.65;100.00;101707.19;5070480;28;20171;-75
2021/11/09 02:31:49;;;;;;;4.00;2.40;;;;;;;7.67;100.00;101705.88;5070164;28;20181;-75
2021/11/09 02:34:14;;;;;;;2.77;2.10;;;;;;;7.63;100.00;101704.72;5070235;28;20701;-75
2021/11/09 02:36:40;;;;;;;2.70;2.07;;;;;;;7.67;100.00;101694.16;5070076;28;20166;-75
2021/11/09 02:39:05;;;;;;;2.67;2.37;;;;;;;7.70;100.00;101712.69;5070147;28;20252;-74
2021/11/09 02:41:30;;;;;;;3.07;2.30;;;;;;;7.68;100.00;101712.94;5070150;28;20179;-75
2021/11/09 02:43:58;;;;;;;2.20;1.77;;;;;;;7.60;100.00;101705.25;5072169;28;20181;-75
2021/11/09 02:46:45;;;;;;;2.10;1.90;;;;;;;7.59;100.00;101703.59;5073959;28;20174;-75
2021/11/09 02:49:18;;;;;;;1.93;1.40;;;;;;;7.57;100.00;101704.97;5073984;28;20617;-74
2021/11/09 02:51:52;;;;;;;4.03;2.97;;;;;;;7.55;100.00;101705.22;5074033;28;20402;-75
2021/11/09 02:54:32;;;;;;;3.80;2.13;;;;;;;7.52;100.00;101708.44;5073666;28;20166;-75
2021/11/09 02:57:00;;;;;;;9.00;3.83;;;;;;;7.55;100.00;101707.94;5074034;28;20170;-75
2021/11/09 03:01:58;;;;;;;3.50;2.43;;;;;;;7.61;100.00;101731.38;5073551;28;20183;-75
2021/11/09 03:09:21;;;;;;;6.30;2.80;;;;;;;7.65;100.00;101726.22;5073827;28;20169;-75
2021/11/09 03:11:53;;;;;;;3.00;2.37;;;;;;;7.66;100.00;101730.56;5073960;28;20212;-75
2021/11/09 03:14:21;;;;;;;3.03;2.73;;;;;;;7.64;100.00;101730.84;5073978;28;20174;-75
2021/11/09 03:16:47;;;;;;;5.57;2.40;;;;;;;7.63;100.00;101733.81;5073955;28;20170;-75
2021/11/09 03:46:38;;;;;;;8.37;2.33;;;;;;;7.62;100.00;101746.59;5073786;28;20632;-75
2021/11/09 03:49:05;;;;;;;5.03;2.93;;;;;;;7.65;100.00;101747.97;5073386;28;20504;-75
2021/11/09 03:51:32;;;;;;;6.87;4.07;;;;;;;7.65;100.00;101751.50;5073636;28;20647;-75
2021/11/09 03:54:01;;;;;;;6.00;2.80;;;;;;;7.65;100.00;101746.06;5073115;28;20193;-75
2021/11/09 03:56:38;;;;;;;3.43;3.13;;;;;;;7.68;100.00;101758.34;5072828;28;20185;-75
2021/11/09 03:59:08;;;;;;;3.03;2.73;;;;;;;7.68;100.00;101756.47;5073277;28;20202;-75
2021/11/09 04:02:21;;;;;;;11.83;4.23;;;;;;;7.69;100.00;101758.09;5073472;28;20626;-75
2021/11/09 04:05:07;;;;;;;4.60;3.57;;;;;;;7.73;100.00;101747.50;5065474;28;20190;-75
2021/11/09 04:07:12;;;;;;;5.67;3.40;;;;;;;7.74;100.00;101751.88;5068769;28;20695;-76
2021/11/09 04:10:09;;;;;;;3.77;3.47;;;;;;;7.75;100.00;101758.94;5072741;28;20224;-75
2021/11/09 04:33:47;;;;;;;4.47;3.40;;;;;;;7.88;100.00;101780.28;5072694;28;20219;-75
2021/11/09 05:03:06;;;;;;;6.60;4.97;;;;;;;7.86;100.00;101774.28;5072307;28;20188;-75
2021/11/09 05:10:45;;;;;;;7.10;4.90;;;;;;;7.88;100.00;101782.19;5071674;28;20171;-75
2021/11/09 05:13:10;;;;;;;9.33;5.80;;;;;;;7.87;100.00;101788.69;5071914;28;20496;-74
2021/11/09 05:15:36;;;;;;;4.93;4.43;;;;;;;7.89;100.00;101795.53;5073482;28;20674;-75
2021/11/09 05:18:01;;;;;;;5.47;4.97;;;;;;;7.88;100.00;101790.34;5072582;28;20183;-74
2021/11/09 05:20:27;;;;;;;5.37;4.43;;;;;;;7.88;100.00;101795.78;5071724;28;20202;-75
2021/11/09 05:22:53;;;;;;;7.53;5.60;;;;;;;7.88;100.00;101793.06;5071592;28;20312;-74
2021/11/09 05:25:19;;;;;;;7.60;5.27;;;;;;;7.85;100.00;101794.41;5071402;28;20206;-75
2021/11/09 05:27:48;;;;;;;8.97;5.23;;;;;;;7.87;100.00;101788.69;5071504;28;20175;-75
2021/11/09 05:30:16;;;;;;;5.20;4.20;;;;;;;7.87;100.00;101794.16;5071495;28;20171;-75
2021/11/09 05:32:43;;;;;;;5.50;4.73;;;;;;;7.84;100.00;101795.50;5071460;28;20179;-74
2021/11/09 05:35:09;;;;;;;4.67;4.17;;;;;;;7.82;100.00;101794.13;5069928;28;20552;-75
2021/11/09 05:37:40;;;;;;;8.33;5.37;;;;;;;7.81;100.00;101803.31;5071301;28;20652;-75
2021/11/09 05:40:07;;;;;;;11.43;5.67;;;;;;;7.80;100.00;101809.84;5071166;28;20202;-74
2021/11/09 05:42:33;;;;;;;7.13;5.47;;;;;;;7.80;100.00;101818.81;5071185;28;20210;-75
2021/11/09 05:44:59;;;;;;;9.80;5.73;;;;;;;7.80;100.00;101818.81;5071039;28;20173;-74
2021/11/09 05:47:24;;;;;;;6.70;5.57;;;;;;;7.79;100.00;101809.03;5071238;28;20253;-74
2021/11/09 05:49:50;;;;;;;7.90;7.10;;;;;;;7.79;100.00;101814.47;5071094;28;20178;-74
2021/11/09 05:52:15;;;;;;;8.37;6.80;;;;;;;7.79;100.00;101811.75;5071363;28;20518;-75
2021/11/09 05:54:41;;;;;;;12.57;5.80;;;;;;;7.79;100.00;101819.91;5070998;28;20202;-75
2021/11/09 05:57:06;;;;;;;8.77;7.20;;;;;;;7.80;100.00;101818.81;5071290;28;20174;-75
2021/11/09 05:59:32;;;;;;;10.03;7.80;;;;;;;7.81;100.00;101816.94;5069568;28;20763;-75
2021/11/09 06:01:58;;;;;;;13.27;9.57;;;;;;;7.83;100.00;101821.06;5071020;28;20182;-75
2021/11/09 06:04:25;;;;;;;15.23;9.00;;;;;;;7.86;100.00;101828.69;5070741;28;20265;-75
2021/11/09 06:06:51;;;;;;;19.20;8.47;;;;;;;7.87;100.00;101826.78;5070821;28;20273;-75
2021/11/09 06:09:16;;;;;;;9.47;7.17;;;;;;;7.88;100.00;101833.88;5070543;28;20266;-75
2021/11/09 06:11:42;;;;;;;13.90;7.83;;;;;;;7.87;100.00;101826.78;5071086;28;20398;-74
2021/11/09 06:14:08;;;;;;;19.67;10.63;;;;;;;7.88;100.00;101836.59;5070651;28;20578;-75
2021/11/09 06:16:33;;;;;;;16.33;10.63;;;;;;;7.88;100.00;101836.59;5070773;28;20322;-75
2021/11/09 06:18:59;;;;;;;21.13;11.53;;;;;;;7.88;100.00;101839.31;5070262;28;20436;-75
2021/11/09 06:21:24;;;;;;;13.73;8.70;;;;;;;7.88;100.00;101837.41;5070597;28;20174;-75
2021/11/09 06:23:50;;;;;;;16.67;12.40;;;;;;;7.89;100.00;101844.50;5070589;28;20174;-74
2021/11/09 06:26:16;;;;;;;20.37;10.03;;;;;;;7.90;100.00;101846.13;5069469;28;20182;-75
2021/11/09 06:28:42;;;;;;;17.23;10.60;;;;;;;7.90;100.00;101842.59;5070635;28;20530;-75
2021/11/09 06:31:08;;;;;;;15.23;10.00;;;;;;;7.91;100.00;101855.94;5070655;28;20185;-75
2021/11/09 06:33:33;;;;;;;21.23;11.27;;;;;;;7.90;100.00;101850.75;5070690;28;20509;-75
2021/11/09 06:35:58;;;;;;;15.27;10.10;;;;;;;7.89;100.00;101851.84;5069289;28;20174;-75
2021/11/09 06:38:24;;;;;;;16.43;12.83;;;;;;;7.90;100.00;101865.19;5070838;28;20178;-75
2021/11/09 06:40:50;;;;;;;16.87;9.37;;;;;;;7.90;100.00;101862.47;5070572;28;20178;-74
2021/11/09 06:43:15;;;;;;;19.67;10.57;;;;;;;7.92;100.00;101870.38;5070555;28;20177;-75
2021/11/09 06:45:42;;;;;;;15.47;10.27;;;;;;;7.93;100.00;101872.81;5070478;28;20304;-75
2021/11/09 06:48:08;;;;;;;15.33;8.70;;;;;;;7.95;100.00;101859.78;5070789;28;20256;-75
2021/11/09 06:50:34;;;;;;;15.63;10.77;;;;;;;7.95;100.00;101876.09;5070368;28;20657;-75
2021/11/09 06:53:00;;;;;;;14.43;9.57;;;;;;;7.95;100.00;101876.09;5070424;28;20209;-74
2021/11/09 06:55:26;;;;;;;21.23;11.00;;;;;;;7.96;100.00;101879.69;5070293;28;20175;-75
2021/11/09 06:57:51;;;;;;;16.93;9.73;;;;;;;8.00;100.00;101888.97;5070408;28;20648;-75
2021/11/09 07:00:19;;;;;;;15.97;12.17;;;;;;;7.99;100.00;101885.41;5070239;28;20207;-75
2021/11/09 07:02:44;;;;;;;11.70;6.13;;;;;;;8.00;100.00;101886.22;5070397;28;20174;-74
2021/11/09 07:05:10;;;;;;;18.23;10.50;;;;;;;8.01;100.00;101891.41;5070216;28;20177;-75
2021/11/09 07:07:36;;;;;;;19.47;8.97;;;;;;;8.01;100.00;101902.31;5069982;28;20190;-75
2021/11/09 07:10:01;;;;;;;20.93;10.33;;;;;;;8.03;100.00;101893.88;5070039;28;20174;-75
2021/11/09 07:12:26;;;;;;;15.93;9.17;;;;;;;8.03;100.00;101899.31;5070257;28;20198;-75
2021/11/09 07:14:52;;;;;;;16.87;10.70;;;;;;;8.03;100.00;101897.41;5070039;28;20182;-75
2021/11/09 07:17:17;;;;;;;13.10;10.00;;;;;;;8.04;100.00;101903.69;5070331;28;20573;-75
2021/11/09 07:19:48;;;;;;;17.03;7.63;;;;;;;8.05;100.00;101911.59;5070074;28;20606;-74
2021/11/09 07:22:15;;;;;;;17.17;7.97;;;;;;;8.06;100.00;101906.97;5070535;28;20158;-74
2021/11/09 07:24:41;;;;;;;21.53;9.27;;;;;;;8.05;100.00;101917.03;5070034;28;20170;-75
2021/11/09 07:27:07;;;;;;;18.93;9.90;;;;;;;8.09;100.00;101913.78;5070071;28;20178;-75
2021/11/09 07:29:32;;;;;;;11.87;9.17;;;;;;;8.11;100.00;101917.91;5070099;28;20181;-74
2021/11/09 07:31:58;;;;;;;11.03;6.80;;;;;;;8.14;100.00;101922.00;5073665;28;20178;-74
2021/11/09 07:34:23;;;;;;;12.30;9.00;;;;;;;8.15;100.00;101919.03;5073511;28;20175;-74
2021/11/09 07:36:49;;;;;;;22.80;8.87;;;;;;;8.18;100.00;101925.84;5073776;28;20177;-73
2021/11/09 07:39:14;;;;;;;10.73;7.53;;;;;;;8.18;100.00;101926.69;5073395;28;20202;-74
2021/11/09 07:41:40;;;;;;;17.17;8.60;;;;;;;8.20;100.00;101932.69;5073491;28;20170;-76
2021/11/09 07:44:07;;;;;;;18.67;9.67;;;;;;;8.22;100.00;101929.69;5073429;28;20174;-76
2021/11/09 07:46:34;;;;;;;18.17;9.60;;;;;;;8.25;100.00;101935.47;5073538;28;20202;-74
2021/11/09 07:48:59;;;;;;;10.30;8.03;;;;;;;8.26;100.00;101930.84;5073132;28;20185;-74
2021/11/09 07:51:25;;;;;;;21.20;9.70;;;;;;;8.29;100.00;101943.94;5073386;28;20270;-74
2021/11/09 07:53:50;;;;;;;17.33;10.47;;;;;;;8.32;100.00;101946.13;5073187;28;20254;-74
2021/11/09 07:58:49;;;;;;;19.80;10.33;;;;;;;8.40;100.00;101945.69;5073192;28;20281;-74
2021/11/09 08:01:21;;;;;;;16.80;9.50;;;;;;;8.47;100.00;101954.47;5073271;28;20158;-76
2021/11/09 08:04:02;;;;;;;18.03;9.10;;;;;;;8.51;100.00;101955.56;5073132;28;20193;-76
2021/11/09 08:06:32;;;;;;;22.47;10.03;;;;;;;8.55;100.00;101955.88;5073015;28;20178;-76
2021/11/09 08:11:35;;;;;;;15.10;9.10;;;;;;;8.60;100.00;101954.03;5072907;28;20174;-76
2021/11/09 08:14:01;;;;;;;13.20;8.90;;;;;;;8.60;100.00;101954.03;5073175;28;20182;-76
2021/11/09 08:16:26;;;;;;;11.33;6.70;;;;;;;8.60;100.00;101953.19;5072897;28;20175;-76
2021/11/09 08:18:51;;;;;;;16.40;9.20;;;;;;;8.64;100.00;101959.75;5072788;28;20198;-75
2021/11/09 08:21:17;;;;;;;12.47;8.87;;;;;;;8.69;100.00;101957.09;5072816;28;20205;-73
2021/11/09 08:23:48;;;;;;;16.80;9.20;;;;;;;8.72;100.00;101958.47;5071365;28;20223;-73
2021/11/09 08:26:14;;;;;;;20.83;9.17;;;;;;;8.76;100.00;101963.13;5072749;28;20181;-75
2021/11/09 08:28:39;;;;;;;17.17;9.67;;;;;;;8.83;100.00;101955.56;5072698;28;20212;-74
2021/11/09 08:31:08;;;;;;;19.20;9.70;;;;;;;8.86;100.00;101955.03;5072594;28;20170;-75
2021/11/09 08:33:34;;;;;;;14.43;9.03;;;;;;;8.83;100.00;101958.28;5072503;28;20210;-76
2021/11/09 08:36:04;;;;;;;15.60;8.77;;;;;;;8.83;100.00;101971.91;5072541;28;20202;-76
2021/11/09 08:38:30;;;;;;;22.57;8.77;;;;;;;8.89;100.00;101976.28;5072705;28;20178;-76
2021/11/09 08:40:57;;;;;;;15.37;8.43;;;;;;;8.89;100.00;101983.66;5069433;28;20190;-76
2021/11/09 08:43:26;;;;;;;15.20;6.63;;;;;;;8.89;100.00;101979.03;5071116;28;20186;-73
2021/11/09 08:45:57;;;;;;;11.17;7.70;;;;;;;8.90;100.00;101980.66;5072334;28;20166;-73
2021/11/09 08:48:24;;;;;;;21.10;6.83;;;;;;;8.92;100.00;101973.03;5072271;28;20695;-73
2021/11/09 08:50:53;;;;;;;12.03;6.37;;;;;;;8.93;100.00;101980.13;5072303;28;20723;-74
2021/11/09 08:53:28;;;;;;;12.23;7.90;;;;;;;8.95;100.00;101977.13;5072074;28;20174;-74
2021/11/09 08:56:23;;;;;;;12.03;8.43;;;;;;;8.99;100.00;101977.47;5072113;28;20223;-74
2021/11/09 09:04:20;;;;;;;12.13;7.57;;;;;;;8.90;100.00;101969.75;5071810;28;20609;-74
2021/11/09 09:06:51;;;;;;;19.13;8.30;;;;;;;8.88;100.00;101977.38;5071802;28;20691;-74
2021/11/09 09:09:18;;;;;;;15.27;7.70;;;;;;;8.90;100.00;101975.22;5071711;28;20163;-74
2021/11/09 09:11:45;;;;;;;13.50;7.30;;;;;;;8.93;100.00;101962.97;5069921;28;20186;-74
2021/11/09 09:14:11;;;;;;;17.40;9.23;;;;;;;8.94;100.00;101973.59;5067232;28;20657;-74
2021/11/09 09:16:38;;;;;;;14.80;7.40;;;;;;;9.05;100.00;101981.84;5071927;28;20182;-74
2021/11/09 09:19:05;;;;;;;23.47;9.27;;;;;;;9.10;100.00;101987.31;5071494;28;20198;-74
2021/11/09 09:21:40;;;;;;;8.40;6.67;;;;;;;9.16;100.00;101986.28;5071624;28;20175;-74
2021/11/09 09:24:14;;;;;;;10.17;9.17;;;;;;;9.20;100.00;101988.22;5071565;28;20177;-74
2021/11/09 09:54:01;;;;;;;18.70;6.37;;;;;;;9.97;96.95;101988.50;5069696;28;20170;-74
2021/11/09 09:56:46;;;;;;;11.20;5.53;;;;;;;10.06;97.77;101990.47;5063319;28;20205;-74
2021/11/09 09:59:12;;;;;;;6.83;4.70;;;;;;;10.21;95.65;101991.56;5070862;28;20194;-73
2021/11/09 10:01:43;;;;;;;12.97;6.67;;;;;;;10.26;94.32;101988.88;5070995;28;20173;-73
2021/11/09 10:04:49;;;;;;;11.93;4.80;;;;;;;10.35;94.14;101990.00;5070721;28;20177;-74
2021/11/09 10:07:27;;;;;;;10.03;5.70;;;;;;;10.39;93.02;101991.91;5049617;28;20198;-74
2021/11/09 10:09:52;;;;;;;13.50;5.57;;;;;;;10.44;91.46;101991.09;5070478;28;20178;-74
2021/11/09 10:12:34;;;;;;;14.60;5.30;;;;;;;10.41;91.73;101988.88;5070790;28;20177;-74
2021/11/09 10:15:08;;;;;;;17.63;6.27;;;;;;;10.49;91.34;101984.81;5070622;28;20167;-74
2021/11/09 10:17:41;;;;;;;14.87;5.60;;;;;;;10.59;90.42;101982.91;5069390;28;20261;-74
2021/11/09 10:20:16;;;;;;;9.27;4.23;;;;;;;10.67;89.10;101982.34;5069189;28;20213;-74
2021/11/09 10:22:43;;;;;;;8.17;4.30;;;;;;;10.69;87.31;102040.28;5070482;28;20185;-74
2021/11/09 10:25:14;;;;;;;8.37;4.77;;;;;;;10.76;88.91;101962.66;5070787;28;20518;-74
2021/11/09 10:27:41;;;;;;;5.70;3.67;;;;;;;10.75;87.00;101974.69;5070501;28;20163;-75
2021/11/09 10:30:16;;;;;;;15.07;5.43;;;;;;;10.73;86.10;101977.72;5070524;28;20174;-74
2021/11/09 10:32:42;;;;;;;5.73;5.10;;;;;;;10.79;87.05;101983.97;5072004;28;20169;-74
2021/11/09 10:35:10;;;;;;;6.37;4.10;;;;;;;10.85;85.89;101969.19;5071643;28;20185;-74
2021/11/09 10:37:38;;;;;;;14.00;3.77;;;;;;;10.88;85.47;101983.16;5070977;28;20270;-74
2021/11/09 10:40:13;;;;;;;7.47;4.10;;;;;;;10.98;86.65;101982.31;5070362;28;20206;-75
2021/11/09 10:42:41;;;;;;;7.53;4.90;;;;;;;11.05;85.80;101982.84;5070048;28;20190;-74
2021/11/09 10:45:10;;;;;;;5.27;4.10;;;;;;;11.09;85.98;101983.94;5070057;28;20163;-74
2021/11/09 10:47:50;;;;;;;5.47;3.53;;;;;;;11.09;86.20;101985.84;5070099;28;20224;-74
2021/11/09 10:50:49;;;;;;;6.77;4.00;;;;;;;11.23;82.57;101987.72;5070172;28;20249;-75
2021/11/09 10:53:32;;;;;;;11.43;2.10;;;;;;;11.28;78.85;101990.47;5055226;28;20215;-75
2021/11/09 10:58:59;;;;;;;4.23;1.67;;;;;;;11.26;77.03;101973.47;5070093;28;20174;-75
2021/11/09 11:04:06;;;;;;;5.90;2.80;;;;;;;11.35;78.92;101962.78;5070542;28;20174;-74
2021/11/09 11:06:37;;;;;;;3.17;2.80;;;;;;;11.40;79.77;101956.47;5073801;28;20647;-75
2021/11/09 11:09:15;;;;;;;26.23;2.17;;;;;;;11.50;77.75;101961.91;5073860;28;20277;-74
2021/11/09 11:12:06;;;;;;;6.90;1.23;;;;;;;11.38;72.97;101953.22;5054396;28;20183;-75
2021/11/09 11:14:32;;;;;;;0.40;0.40;;;;;;;11.22;72.87;101955.19;5053926;28;20202;-73
2021/11/09 11:17:03;;;;;;;2.27;1.03;;;;;;;11.25;73.43;101958.16;5054081;28;20171;-73
2021/11/09 11:19:38;;;;;;;2.87;1.50;;;;;;;11.33;74.04;101957.59;5053009;28;20730;-73
2021/11/09 11:22:11;;;;;;;1.33;1.20;;;;;;;11.43;74.68;101951.28;5070701;28;20193;-74
2021/11/09 11:24:38;;;;;;;4.27;1.60;;;;;;;11.47;74.50;101952.34;5073739;28;20159;-73
2021/11/09 11:27:05;;;;;;;4.43;1.60;;;;;;;11.53;73.63;101953.97;5073177;28;20646;-74
2021/11/09 11:29:37;;;;;;;3.77;2.30;;;;;;;11.56;73.77;101952.56;5072063;28;20185;-74
2021/11/09 11:32:04;;;;;;;2.67;1.77;;;;;;;11.74;74.54;101941.00;5071951;28;20228;-74
2021/11/09 11:34:30;;;;;;;1.03;0.97;;;;;;;11.81;73.74;101947.00;5072104;28;20170;-74
2021/11/09 11:36:56;;;;;;;1.83;1.27;;;;;;;11.76;73.66;101948.94;5071936;28;20192;-73
2021/11/09 11:39:25;;;;;;;2.57;1.77;;;;;;;11.73;74.42;101944.03;5071867;28;20553;-74
2021/11/09 11:42:00;;;;;;;3.30;1.20;;;;;;;11.71;73.22;101947.03;5072050;28;20167;-74
2021/11/09 11:44:29;;;;;;;3.00;1.57;;;;;;;11.70;73.20;101942.66;5073036;28;20452;-74
2021/11/09 11:46:58;;;;;;;4.87;1.70;;;;;;;11.68;73.10;101944.84;5072971;28;20178;-73
2021/11/09 11:49:40;;;;;;;3.47;1.20;;;;;;;11.71;73.61;101936.06;5072884;28;20240;-73
2021/11/09 11:52:20;;;;;;;5.60;2.27;;;;;;;11.72;74.21;101937.72;5072924;28;20202;-74
2021/11/09 11:54:51;;;;;;;3.03;1.80;;;;;;;11.86;76.44;101941.53;5072692;28;20189;-74
2021/11/09 11:57:29;;;;;;;5.53;1.13;;;;;;;11.84;74.71;101935.47;5072714;28;20242;-73
2021/11/09 11:59:55;;;;;;;2.33;1.53;;;;;;;11.85;73.76;101942.59;5072757;28;20210;-73
2021/11/09 12:02:36;;;;;;;2.23;1.60;;;;;;;11.97;74.67;101941.44;5072913;28;20177;-74
2021/11/09 12:05:04;;;;;;;1.90;1.10;;;;;;;11.88;74.32;101942.03;5072487;28;20194;-74
2021/11/09 12:07:50;;;;;;;5.30;1.57;;;;;;;11.79;72.60;101932.78;5072456;28;20179;-73
2021/11/09 12:10:15;;;;;;;2.97;2.03;;;;;;;11.72;73.99;101936.91;5072330;28;20178;-73
2021/11/09 12:12:41;;;;;;;1.33;0.90;;;;;;;11.63;73.76;101917.50;5072527;28;20666;-73
2021/11/09 12:15:08;;;;;;;2.90;1.30;;;;;;;11.59;72.96;101916.44;5072385;28;20171;-74
2021/11/09 12:17:40;;;;;;;2.90;1.90;;;;;;;11.47;73.92;101915.97;5071841;28;20182;-76
2021/11/09 12:20:10;;;;;;;6.30;1.30;;;;;;;11.37;74.12;101905.88;5072236;28;20206;-76
2021/11/09 12:22:46;;;;;;;6.23;1.87;;;;;;;11.52;76.83;101911.28;5072369;28;20170;-77
2021/11/09 12:25:36;;;;;;;0.50;0.50;;;;;;;11.63;73.49;101904.66;5069883;28;20524;-76
2021/11/09 12:28:09;;;;;;;2.20;1.60;;;;;;;11.71;75.35;101903.22;5072033;28;20173;-77
2021/11/09 12:30:35;;;;;;;2.20;1.23;;;;;;;11.77;74.81;101904.84;5072215;28;20192;-76
2021/11/09 12:33:21;;;;;;;3.30;1.40;;;;;;;11.76;74.92;101903.19;5072129;28;20171;-76
2021/11/09 12:35:56;;;;;;;3.43;2.10;;;;;;;11.77;74.77;101904.84;5072267;28;20657;-77
2021/11/09 12:38:29;;;;;;;2.87;1.70;;;;;;;11.75;74.95;101901.56;5070228;28;20250;-77
2021/11/09 12:40:57;;;;;;;2.20;1.33;;;;;;;11.64;76.25;101897.25;5067574;28;20211;-77
2021/11/09 12:43:29;;;;;;;2.63;1.20;;;;;;;11.48;74.43;101906.66;5070027;28;20186;-76
2021/11/09 12:46:04;;;;;;;2.40;1.60;;;;;;;11.37;75.90;101896.84;5071188;28;20584;-76
2021/11/09 12:48:33;;;;;;;2.90;1.57;;;;;;;11.36;75.30;101892.47;5072240;28;20189;-76
2021/11/09 12:51:08;;;;;;;4.27;2.03;;;;;;;11.32;74.94;101886.75;5072585;28;20178;-76
2021/11/09 12:53:38;;;;;;;1.67;1.30;;;;;;;11.41;75.41;101898.72;5072668;28;20197;-76
2021/11/09 12:56:05;;;;;;;2.53;1.30;;;;;;;11.55;75.43;101888.81;5072520;28;20202;-76
2021/11/09 12:58:35;;;;;;;1.03;1.03;;;;;;;11.74;73.23;101894.47;5072419;28;20212;-76
2021/11/09 13:01:12;;;;;;;1.73;1.27;;;;;;;11.81;73.24;101894.16;5072231;28;20174;-76
2021/11/09 13:03:45;;;;;;;4.90;0.90;;;;;;;11.86;73.13;101886.75;5072364;28;20155;-77
2021/11/09 13:06:38;;;;;;;1.77;1.20;;;;;;;12.02;72.88;101883.91;5072217;28;20193;-76
2021/11/09 13:09:09;;;;;;;0.53;0.53;;;;;;;12.03;70.85;101882.78;5072274;28;20166;-76
2021/11/09 13:11:42;;;;;;;1.80;1.10;;;;;;;12.00;72.36;101867.72;5072223;28;20166;-74
2021/11/09 13:14:09;;;;;;;1.47;1.00;;;;;;;11.96;71.91;101869.41;5072161;28;20521;-74
2021/11/09 13:16:41;;;;;;;2.33;1.50;;;;;;;12.03;72.12;101869.91;5072071;28;20179;-74
2021/11/09 13:19:07;;;;;;;4.43;1.10;;;;;;;12.04;70.67;101876.22;5072179;28;20332;-73
2021/11/09 13:21:37;;;;;;;2.10;1.57;;;;;;;12.05;71.60;101870.44;5071908;28;20186;-76
2021/11/09 13:24:04;;;;;;;2.27;1.30;;;;;;;12.12;72.39;101870.09;5071973;28;20213;-76
2021/11/09 13:26:30;;;;;;;3.83;1.40;;;;;;;12.16;71.44;101872.00;5071494;28;20303;-76
2021/11/09 13:29:03;;;;;;;1.73;1.43;;;;;;;12.17;70.51;101867.34;5070539;28;20174;-76
2021/11/09 13:31:32;;;;;;;2.07;1.17;;;;;;;12.18;70.78;101863.50;5070008;28;20183;-76
2021/11/09 13:34:00;;;;;;;1.57;1.47;;;;;;;12.21;70.22;101862.91;5069293;28;20300;-75
2021/11/09 13:36:25;;;;;;;2.30;1.30;;;;;;;12.19;70.56;101856.91;5069852;28;20174;-76
2021/11/09 13:38:51;;;;;;;1.33;1.20;;;;;;;12.17;70.77;101865.41;5071295;28;20545;-76
2021/11/09 13:41:28;;;;;;;1.83;1.50;;;;;;;12.21;71.44;101855.50;5071388;28;20171;-75
2021/11/09 13:43:56;;;;;;;3.97;1.30;;;;;;;12.29;71.96;101867.75;5071377;28;20182;-76
2021/11/09 13:46:25;;;;;;;3.90;1.53;;;;;;;12.33;71.28;101859.78;5071552;28;20229;-76